sensor_id;sensor_type;location;lat;lon;timestamp;P1;durP1;ratioP1;P2;durP2;ratioP2
9559;SDS011;4818;50.860;4.648;2022-10-31T00:00:03;21.45;;;12.07;;
9559;SDS011;4818;50.860;4.648;2022-10-31T00:02:30;16.80;;;10.63;;
9559;SDS011;4818;50.860;4.648;2022-10-31T00:04:56;18.35;;;9.80;;
9559;SDS011;4818;50.860;4.648;2022-10-31T00:07:22;14.35;;;9.20;;
9559;SDS011;4818;50.860;4.648;2022-10-31T00:09:49;15.45;;;9.40;;
9559;SDS011;4818;50.860;4.648;2022-10-31T00:12:15;18.02;;;11.43;;
9559;SDS011;4818;50.860;4.648;2022-10-31T00:14:41;18.45;;;10.57;;
9559;SDS011;4818;50.860;4.648;2022-10-31T00:17:07;19.55;;;10.48;;
9559;SDS011;4818;50.860;4.648;2022-10-31T00:19:33;22.17;;;11.32;;
9559;SDS011;4818;50.860;4.648;2022-10-31T00:21:59;17.88;;;10.32;;
9559;SDS011;4818;50.860;4.648;2022-10-31T00:24:26;14.50;;;9.63;;
9559;SDS011;4818;50.860;4.648;2022-10-31T00:26:52;16.67;;;9.82;;
9559;SDS011;4818;50.860;4.648;2022-10-31T00:29:18;16.35;;;9.90;;
9559;SDS011;4818;50.860;4.648;2022-10-31T00:31:44;14.60;;;9.13;;
9559;SDS011;4818;50.860;4.648;2022-10-31T00:34:10;13.40;;;7.75;;
9559;SDS011;4818;50.860;4.648;2022-10-31T00:36:36;18.98;;;9.20;;
9559;SDS011;4818;50.860;4.648;2022-10-31T00:39:03;16.63;;;9.63;;
9559;SDS011;4818;50.860;4.648;2022-10-31T00:41:29;19.13;;;10.05;;
9559;SDS011;4818;50.860;4.648;2022-10-31T00:43:55;12.98;;;8.32;;
9559;SDS011;4818;50.860;4.648;2022-10-31T00:46:22;13.32;;;8.25;;
9559;SDS011;4818;50.860;4.648;2022-10-31T00:48:49;14.07;;;8.50;;
9559;SDS011;4818;50.860;4.648;2022-10-31T00:51:15;18.13;;;9.20;;
9559;SDS011;4818;50.860;4.648;2022-10-31T00:53:41;15.50;;;9.50;;
9559;SDS011;4818;50.860;4.648;2022-10-31T00:56:07;12.40;;;8.63;;
9559;SDS011;4818;50.860;4.648;2022-10-31T00:58:33;18.20;;;9.48;;
9559;SDS011;4818;50.860;4.648;2022-10-31T01:01:00;14.20;;;8.45;;
9559;SDS011;4818;50.860;4.648;2022-10-31T01:03:28;18.55;;;9.13;;
9559;SDS011;4818;50.860;4.648;2022-10-31T01:05:55;18.50;;;8.65;;
9559;SDS011;4818;50.860;4.648;2022-10-31T01:08:22;17.17;;;8.93;;
9559;SDS011;4818;50.860;4.648;2022-10-31T01:10:57;10.48;;;7.05;;
9559;SDS011;4818;50.860;4.648;2022-10-31T01:13:24;11.88;;;8.30;;
9559;SDS011;4818;50.860;4.648;2022-10-31T01:15:54;15.70;;;8.85;;
9559;SDS011;4818;50.860;4.648;2022-10-31T01:18:20;16.75;;;8.63;;
9559;SDS011;4818;50.860;4.648;2022-10-31T01:20:47;16.58;;;8.95;;
9559;SDS011;4818;50.860;4.648;2022-10-31T01:23:13;13.25;;;8.43;;
9559;SDS011;4818;50.860;4.648;2022-10-31T01:25:39;12.32;;;7.90;;
9559;SDS011;4818;50.860;4.648;2022-10-31T01:28:07;14.18;;;7.15;;
9559;SDS011;4818;50.860;4.648;2022-10-31T01:30:33;13.93;;;8.45;;
9559;SDS011;4818;50.860;4.648;2022-10-31T01:33:00;14.93;;;8.60;;
9559;SDS011;4818;50.860;4.648;2022-10-31T01:35:26;12.15;;;8.50;;
9559;SDS011;4818;50.860;4.648;2022-10-31T01:37:52;13.35;;;8.50;;
9559;SDS011;4818;50.860;4.648;2022-10-31T01:40:18;14.70;;;8.70;;
9559;SDS011;4818;50.860;4.648;2022-10-31T01:42:44;14.18;;;7.25;;
9559;SDS011;4818;50.860;4.648;2022-10-31T01:45:10;13.20;;;7.95;;
9559;SDS011;4818;50.860;4.648;2022-10-31T01:47:46;18.48;;;9.15;;
9559;SDS011;4818;50.860;4.648;2022-10-31T01:50:16;13.48;;;7.65;;
9559;SDS011;4818;50.860;4.648;2022-10-31T01:52:46;13.43;;;8.18;;
9559;SDS011;4818;50.860;4.648;2022-10-31T01:57:40;13.95;;;8.27;;
9559;SDS011;4818;50.860;4.648;2022-10-31T02:00:08;11.40;;;8.02;;
9559;SDS011;4818;50.860;4.648;2022-10-31T02:02:35;17.00;;;9.25;;
9559;SDS011;4818;50.860;4.648;2022-10-31T02:05:02;14.15;;;8.60;;
9559;SDS011;4818;50.860;4.648;2022-10-31T02:07:32;14.20;;;8.23;;
9559;SDS011;4818;50.860;4.648;2022-10-31T02:10:00;15.90;;;7.82;;
9559;SDS011;4818;50.860;4.648;2022-10-31T02:12:26;15.13;;;8.52;;
9559;SDS011;4818;50.860;4.648;2022-10-31T02:14:53;13.63;;;8.25;;
9559;SDS011;4818;50.860;4.648;2022-10-31T02:17:19;13.50;;;7.40;;
9559;SDS011;4818;50.860;4.648;2022-10-31T02:30:14;14.07;;;7.35;;
9559;SDS011;4818;50.860;4.648;2022-10-31T02:33:06;13.27;;;7.88;;
9559;SDS011;4818;50.860;4.648;2022-10-31T02:35:50;10.48;;;6.93;;
9559;SDS011;4818;50.860;4.648;2022-10-31T02:38:25;17.13;;;7.30;;
9559;SDS011;4818;50.860;4.648;2022-10-31T02:41:06;12.13;;;7.10;;
9559;SDS011;4818;50.860;4.648;2022-10-31T02:46:05;17.92;;;7.95;;
9559;SDS011;4818;50.860;4.648;2022-10-31T02:48:34;13.20;;;7.45;;
9559;SDS011;4818;50.860;4.648;2022-10-31T02:51:03;12.57;;;7.63;;
9559;SDS011;4818;50.860;4.648;2022-10-31T02:53:33;12.27;;;6.05;;
9559;SDS011;4818;50.860;4.648;2022-10-31T02:58:27;12.55;;;7.38;;
9559;SDS011;4818;50.860;4.648;2022-10-31T03:08:40;12.98;;;7.10;;
9559;SDS011;4818;50.860;4.648;2022-10-31T03:11:08;13.68;;;6.80;;
9559;SDS011;4818;50.860;4.648;2022-10-31T03:13:45;14.52;;;7.53;;
9559;SDS011;4818;50.860;4.648;2022-10-31T03:18:49;17.48;;;8.48;;
9559;SDS011;4818;50.860;4.648;2022-10-31T03:21:21;17.60;;;8.10;;
9559;SDS011;4818;50.860;4.648;2022-10-31T03:23:49;23.35;;;10.32;;
9559;SDS011;4818;50.860;4.648;2022-10-31T03:26:17;28.45;;;9.98;;
9559;SDS011;4818;50.860;4.648;2022-10-31T03:28:45;22.38;;;11.07;;
9559;SDS011;4818;50.860;4.648;2022-10-31T03:31:12;19.33;;;9.95;;
9559;SDS011;4818;50.860;4.648;2022-10-31T03:33:41;25.27;;;10.23;;
9559;SDS011;4818;50.860;4.648;2022-10-31T03:36:08;18.02;;;8.95;;
9559;SDS011;4818;50.860;4.648;2022-10-31T03:38:36;19.23;;;9.68;;
9559;SDS011;4818;50.860;4.648;2022-10-31T03:41:04;19.85;;;9.55;;
9559;SDS011;4818;50.860;4.648;2022-10-31T03:43:32;17.67;;;9.43;;
9559;SDS011;4818;50.860;4.648;2022-10-31T03:45:59;21.45;;;8.95;;
9559;SDS011;4818;50.860;4.648;2022-10-31T03:48:25;17.92;;;9.55;;
9559;SDS011;4818;50.860;4.648;2022-10-31T03:51:06;17.60;;;9.68;;
9559;SDS011;4818;50.860;4.648;2022-10-31T03:53:37;16.08;;;7.95;;
9559;SDS011;4818;50.860;4.648;2022-10-31T03:56:36;11.43;;;7.50;;
9559;SDS011;4818;50.860;4.648;2022-10-31T03:59:17;14.15;;;7.50;;
9559;SDS011;4818;50.860;4.648;2022-10-31T04:01:47;14.55;;;8.13;;
9559;SDS011;4818;50.860;4.648;2022-10-31T04:04:15;14.75;;;8.57;;
9559;SDS011;4818;50.860;4.648;2022-10-31T04:06:41;19.17;;;9.35;;
9559;SDS011;4818;50.860;4.648;2022-10-31T04:09:08;20.25;;;10.00;;
9559;SDS011;4818;50.860;4.648;2022-10-31T04:11:42;34.55;;;12.38;;
9559;SDS011;4818;50.860;4.648;2022-10-31T04:14:10;23.80;;;11.55;;
9559;SDS011;4818;50.860;4.648;2022-10-31T04:16:40;21.58;;;10.05;;
9559;SDS011;4818;50.860;4.648;2022-10-31T04:19:07;11.80;;;7.10;;
9559;SDS011;4818;50.860;4.648;2022-10-31T04:21:34;11.55;;;7.78;;
9559;SDS011;4818;50.860;4.648;2022-10-31T04:24:00;14.48;;;7.32;;
9559;SDS011;4818;50.860;4.648;2022-10-31T04:26:26;8.10;;;6.13;;
9559;SDS011;4818;50.860;4.648;2022-10-31T04:28:52;8.48;;;6.00;;
9559;SDS011;4818;50.860;4.648;2022-10-31T04:31:18;8.15;;;5.97;;
9559;SDS011;4818;50.860;4.648;2022-10-31T04:33:45;9.82;;;6.10;;
9559;SDS011;4818;50.860;4.648;2022-10-31T04:36:11;14.30;;;8.05;;
9559;SDS011;4818;50.860;4.648;2022-10-31T04:38:37;13.75;;;9.00;;
9559;SDS011;4818;50.860;4.648;2022-10-31T04:41:04;15.18;;;8.80;;
9559;SDS011;4818;50.860;4.648;2022-10-31T04:43:30;15.63;;;9.20;;
9559;SDS011;4818;50.860;4.648;2022-10-31T04:45:56;16.05;;;8.80;;
9559;SDS011;4818;50.860;4.648;2022-10-31T04:48:22;12.02;;;7.68;;
9559;SDS011;4818;50.860;4.648;2022-10-31T04:50:48;14.43;;;8.00;;
9559;SDS011;4818;50.860;4.648;2022-10-31T04:53:15;19.17;;;7.57;;
9559;SDS011;4818;50.860;4.648;2022-10-31T04:55:41;14.90;;;7.40;;
9559;SDS011;4818;50.860;4.648;2022-10-31T04:58:07;14.38;;;7.78;;
9559;SDS011;4818;50.860;4.648;2022-10-31T05:00:33;10.93;;;7.55;;
9559;SDS011;4818;50.860;4.648;2022-10-31T05:02:59;15.93;;;9.60;;
9559;SDS011;4818;50.860;4.648;2022-10-31T05:05:27;17.85;;;9.32;;
9559;SDS011;4818;50.860;4.648;2022-10-31T05:07:53;15.55;;;9.82;;
9559;SDS011;4818;50.860;4.648;2022-10-31T05:10:21;18.20;;;8.75;;
9559;SDS011;4818;50.860;4.648;2022-10-31T05:12:48;14.25;;;8.27;;
9559;SDS011;4818;50.860;4.648;2022-10-31T05:15:14;16.23;;;8.60;;
9559;SDS011;4818;50.860;4.648;2022-10-31T05:17:40;14.07;;;8.27;;
9559;SDS011;4818;50.860;4.648;2022-10-31T05:20:07;14.82;;;7.78;;
9559;SDS011;4818;50.860;4.648;2022-10-31T05:22:33;15.52;;;6.70;;
9559;SDS011;4818;50.860;4.648;2022-10-31T05:24:59;10.77;;;7.28;;
9559;SDS011;4818;50.860;4.648;2022-10-31T05:27:25;12.85;;;6.72;;
9559;SDS011;4818;50.860;4.648;2022-10-31T05:29:52;14.55;;;6.95;;
9559;SDS011;4818;50.860;4.648;2022-10-31T05:32:18;10.45;;;6.60;;
9559;SDS011;4818;50.860;4.648;2022-10-31T05:34:44;8.52;;;6.10;;
9559;SDS011;4818;50.860;4.648;2022-10-31T05:37:10;8.02;;;6.13;;
9559;SDS011;4818;50.860;4.648;2022-10-31T05:39:36;9.07;;;6.45;;
9559;SDS011;4818;50.860;4.648;2022-10-31T05:42:03;17.60;;;7.85;;
9559;SDS011;4818;50.860;4.648;2022-10-31T05:44:29;10.63;;;7.32;;
9559;SDS011;4818;50.860;4.648;2022-10-31T05:46:55;13.27;;;6.97;;
9559;SDS011;4818;50.860;4.648;2022-10-31T05:49:21;9.60;;;7.30;;
9559;SDS011;4818;50.860;4.648;2022-10-31T05:51:48;10.27;;;6.20;;
9559;SDS011;4818;50.860;4.648;2022-10-31T05:54:14;10.77;;;6.80;;
9559;SDS011;4818;50.860;4.648;2022-10-31T05:56:40;9.10;;;5.50;;
9559;SDS011;4818;50.860;4.648;2022-10-31T05:59:06;10.15;;;6.05;;
9559;SDS011;4818;50.860;4.648;2022-10-31T06:01:32;8.45;;;6.00;;
9559;SDS011;4818;50.860;4.648;2022-10-31T06:03:59;10.13;;;6.50;;
9559;SDS011;4818;50.860;4.648;2022-10-31T06:06:25;9.38;;;6.90;;
9559;SDS011;4818;50.860;4.648;2022-10-31T06:08:51;11.77;;;6.07;;
9559;SDS011;4818;50.860;4.648;2022-10-31T06:11:17;12.05;;;7.10;;
9559;SDS011;4818;50.860;4.648;2022-10-31T06:13:43;8.57;;;5.85;;
9559;SDS011;4818;50.860;4.648;2022-10-31T06:16:10;11.27;;;6.03;;
9559;SDS011;4818;50.860;4.648;2022-10-31T06:18:36;9.98;;;6.45;;
9559;SDS011;4818;50.860;4.648;2022-10-31T06:21:02;9.98;;;6.50;;
9559;SDS011;4818;50.860;4.648;2022-10-31T06:23:28;8.18;;;5.22;;
9559;SDS011;4818;50.860;4.648;2022-10-31T06:25:54;6.97;;;5.38;;
9559;SDS011;4818;50.860;4.648;2022-10-31T06:28:21;6.82;;;5.13;;
9559;SDS011;4818;50.860;4.648;2022-10-31T06:30:47;6.05;;;3.78;;
9559;SDS011;4818;50.860;4.648;2022-10-31T06:33:13;5.85;;;3.78;;
9559;SDS011;4818;50.860;4.648;2022-10-31T06:35:44;7.13;;;4.15;;
9559;SDS011;4818;50.860;4.648;2022-10-31T06:38:10;4.85;;;3.50;;
9559;SDS011;4818;50.860;4.648;2022-10-31T06:40:37;9.88;;;5.80;;
9559;SDS011;4818;50.860;4.648;2022-10-31T06:43:30;6.95;;;5.88;;
9559;SDS011;4818;50.860;4.648;2022-10-31T06:46:03;8.07;;;5.45;;
9559;SDS011;4818;50.860;4.648;2022-10-31T06:48:30;5.90;;;4.32;;
9559;SDS011;4818;50.860;4.648;2022-10-31T06:50:59;7.38;;;4.57;;
9559;SDS011;4818;50.860;4.648;2022-10-31T06:55:52;9.55;;;5.15;;
9559;SDS011;4818;50.860;4.648;2022-10-31T06:58:18;7.22;;;4.28;;
9559;SDS011;4818;50.860;4.648;2022-10-31T07:00:44;10.18;;;4.95;;
9559;SDS011;4818;50.860;4.648;2022-10-31T07:03:11;8.23;;;4.90;;
9559;SDS011;4818;50.860;4.648;2022-10-31T07:05:38;6.38;;;4.88;;
9559;SDS011;4818;50.860;4.648;2022-10-31T07:08:06;8.27;;;4.22;;
9559;SDS011;4818;50.860;4.648;2022-10-31T07:10:33;9.13;;;5.93;;
9559;SDS011;4818;50.860;4.648;2022-10-31T07:13:01;10.02;;;6.18;;
9559;SDS011;4818;50.860;4.648;2022-10-31T07:15:28;8.50;;;5.88;;
9559;SDS011;4818;50.860;4.648;2022-10-31T07:18:02;10.20;;;6.60;;
9559;SDS011;4818;50.860;4.648;2022-10-31T07:20:28;12.98;;;6.55;;
9559;SDS011;4818;50.860;4.648;2022-10-31T07:22:54;11.02;;;5.85;;
9559;SDS011;4818;50.860;4.648;2022-10-31T07:25:21;7.28;;;5.70;;
9559;SDS011;4818;50.860;4.648;2022-10-31T07:27:47;8.18;;;6.30;;
9559;SDS011;4818;50.860;4.648;2022-10-31T07:30:14;8.43;;;6.05;;
9559;SDS011;4818;50.860;4.648;2022-10-31T07:32:42;10.50;;;7.32;;
9559;SDS011;4818;50.860;4.648;2022-10-31T07:35:11;13.65;;;7.93;;
9559;SDS011;4818;50.860;4.648;2022-10-31T07:37:37;12.95;;;7.18;;
9559;SDS011;4818;50.860;4.648;2022-10-31T07:40:04;11.95;;;7.90;;
9559;SDS011;4818;50.860;4.648;2022-10-31T07:42:37;13.20;;;8.02;;
9559;SDS011;4818;50.860;4.648;2022-10-31T07:45:04;11.95;;;7.63;;
9559;SDS011;4818;50.860;4.648;2022-10-31T07:47:40;11.43;;;6.65;;
9559;SDS011;4818;50.860;4.648;2022-10-31T07:50:07;15.38;;;7.93;;
9559;SDS011;4818;50.860;4.648;2022-10-31T07:52:34;9.10;;;7.50;;
9559;SDS011;4818;50.860;4.648;2022-10-31T07:55:00;14.65;;;8.55;;
9559;SDS011;4818;50.860;4.648;2022-10-31T07:57:26;15.63;;;7.82;;
9559;SDS011;4818;50.860;4.648;2022-10-31T07:59:52;14.13;;;8.48;;
9559;SDS011;4818;50.860;4.648;2022-10-31T08:02:19;10.70;;;7.22;;
9559;SDS011;4818;50.860;4.648;2022-10-31T08:04:45;11.60;;;8.45;;
9559;SDS011;4818;50.860;4.648;2022-10-31T08:07:11;10.25;;;7.68;;
9559;SDS011;4818;50.860;4.648;2022-10-31T08:09:37;13.82;;;7.70;;
9559;SDS011;4818;50.860;4.648;2022-10-31T08:12:05;18.75;;;8.73;;
9559;SDS011;4818;50.860;4.648;2022-10-31T08:14:31;17.40;;;9.80;;
9559;SDS011;4818;50.860;4.648;2022-10-31T08:16:57;13.30;;;8.45;;
9559;SDS011;4818;50.860;4.648;2022-10-31T08:19:23;17.40;;;9.10;;
9559;SDS011;4818;50.860;4.648;2022-10-31T08:21:50;15.95;;;9.55;;
9559;SDS011;4818;50.860;4.648;2022-10-31T08:24:17;14.52;;;8.43;;
9559;SDS011;4818;50.860;4.648;2022-10-31T08:26:44;15.43;;;9.10;;
9559;SDS011;4818;50.860;4.648;2022-10-31T08:29:13;13.25;;;8.20;;
9559;SDS011;4818;50.860;4.648;2022-10-31T08:31:42;17.98;;;11.00;;
9559;SDS011;4818;50.860;4.648;2022-10-31T08:34:11;16.77;;;11.07;;
9559;SDS011;4818;50.860;4.648;2022-10-31T08:36:38;16.33;;;8.70;;
9559;SDS011;4818;50.860;4.648;2022-10-31T08:39:04;19.42;;;9.90;;
9559;SDS011;4818;50.860;4.648;2022-10-31T08:41:30;16.90;;;10.02;;
9559;SDS011;4818;50.860;4.648;2022-10-31T08:43:57;15.70;;;10.30;;
9559;SDS011;4818;50.860;4.648;2022-10-31T08:46:28;15.20;;;10.35;;
9559;SDS011;4818;50.860;4.648;2022-10-31T08:48:54;17.70;;;10.25;;
9559;SDS011;4818;50.860;4.648;2022-10-31T08:51:21;13.15;;;9.05;;
9559;SDS011;4818;50.860;4.648;2022-10-31T08:53:49;18.65;;;10.88;;
9559;SDS011;4818;50.860;4.648;2022-10-31T08:56:21;15.77;;;10.30;;
9559;SDS011;4818;50.860;4.648;2022-10-31T08:58:47;19.85;;;11.55;;
9559;SDS011;4818;50.860;4.648;2022-10-31T09:01:14;22.20;;;11.68;;
9559;SDS011;4818;50.860;4.648;2022-10-31T09:03:40;17.63;;;10.52;;
9559;SDS011;4818;50.860;4.648;2022-10-31T09:06:06;14.95;;;10.30;;
9559;SDS011;4818;50.860;4.648;2022-10-31T09:08:34;26.38;;;12.07;;
9559;SDS011;4818;50.860;4.648;2022-10-31T09:11:01;14.32;;;9.95;;
9559;SDS011;4818;50.860;4.648;2022-10-31T09:13:27;18.05;;;10.35;;
9559;SDS011;4818;50.860;4.648;2022-10-31T09:15:56;14.27;;;10.18;;
9559;SDS011;4818;50.860;4.648;2022-10-31T09:18:29;20.10;;;12.80;;
9559;SDS011;4818;50.860;4.648;2022-10-31T09:20:57;16.25;;;11.02;;
9559;SDS011;4818;50.860;4.648;2022-10-31T09:23:24;18.65;;;11.98;;
9559;SDS011;4818;50.860;4.648;2022-10-31T09:25:51;23.15;;;12.32;;
9559;SDS011;4818;50.860;4.648;2022-10-31T09:28:18;19.65;;;13.02;;
9559;SDS011;4818;50.860;4.648;2022-10-31T09:30:46;18.33;;;11.02;;
9559;SDS011;4818;50.860;4.648;2022-10-31T09:33:12;20.88;;;11.38;;
9559;SDS011;4818;50.860;4.648;2022-10-31T09:35:40;26.02;;;11.20;;
9559;SDS011;4818;50.860;4.648;2022-10-31T09:38:08;18.70;;;11.27;;
9559;SDS011;4818;50.860;4.648;2022-10-31T09:51:30;20.55;;;11.60;;
9559;SDS011;4818;50.860;4.648;2022-10-31T09:54:04;20.48;;;12.25;;
9559;SDS011;4818;50.860;4.648;2022-10-31T09:56:31;16.27;;;10.35;;
9559;SDS011;4818;50.860;4.648;2022-10-31T09:59:00;24.52;;;11.30;;
9559;SDS011;4818;50.860;4.648;2022-10-31T10:03:54;17.20;;;10.05;;
9559;SDS011;4818;50.860;4.648;2022-10-31T10:06:27;18.60;;;11.07;;
9559;SDS011;4818;50.860;4.648;2022-10-31T10:08:55;18.20;;;9.48;;
9559;SDS011;4818;50.860;4.648;2022-10-31T10:32:28;19.27;;;10.27;;
9559;SDS011;4818;50.860;4.648;2022-10-31T10:37:38;21.35;;;11.15;;
9559;SDS011;4818;50.860;4.648;2022-10-31T10:40:16;24.27;;;10.30;;
9559;SDS011;4818;50.860;4.648;2022-10-31T10:43:05;16.27;;;10.13;;
9559;SDS011;4818;50.860;4.648;2022-10-31T10:51:53;19.02;;;9.02;;
9559;SDS011;4818;50.860;4.648;2022-10-31T10:55:12;21.08;;;8.05;;
9559;SDS011;4818;50.860;4.648;2022-10-31T10:59:43;26.33;;;7.80;;
9559;SDS011;4818;50.860;4.648;2022-10-31T11:02:15;18.33;;;8.15;;
9559;SDS011;4818;50.860;4.648;2022-10-31T11:04:42;12.75;;;6.80;;
9559;SDS011;4818;50.860;4.648;2022-10-31T11:07:09;16.48;;;7.38;;
9559;SDS011;4818;50.860;4.648;2022-10-31T11:09:38;16.35;;;8.00;;
9559;SDS011;4818;50.860;4.648;2022-10-31T11:12:21;14.57;;;7.28;;
9559;SDS011;4818;50.860;4.648;2022-10-31T11:14:57;15.23;;;7.55;;
9559;SDS011;4818;50.860;4.648;2022-10-31T11:17:30;14.27;;;6.90;;
9559;SDS011;4818;50.860;4.648;2022-10-31T11:20:01;12.20;;;6.38;;
9559;SDS011;4818;50.860;4.648;2022-10-31T11:22:27;11.65;;;7.30;;
9559;SDS011;4818;50.860;4.648;2022-10-31T11:24:54;21.88;;;9.27;;
9559;SDS011;4818;50.860;4.648;2022-10-31T11:27:22;16.17;;;7.55;;
9559;SDS011;4818;50.860;4.648;2022-10-31T11:29:49;15.25;;;7.18;;
9559;SDS011;4818;50.860;4.648;2022-10-31T11:34:45;17.73;;;7.57;;
9559;SDS011;4818;50.860;4.648;2022-10-31T11:37:16;17.30;;;7.47;;
9559;SDS011;4818;50.860;4.648;2022-10-31T11:39:53;16.08;;;8.15;;
9559;SDS011;4818;50.860;4.648;2022-10-31T11:42:26;14.48;;;7.63;;
9559;SDS011;4818;50.860;4.648;2022-10-31T11:44:53;19.90;;;8.82;;
9559;SDS011;4818;50.860;4.648;2022-10-31T11:47:23;14.88;;;7.75;;
9559;SDS011;4818;50.860;4.648;2022-10-31T11:49:51;19.88;;;7.82;;
9559;SDS011;4818;50.860;4.648;2022-10-31T11:57:24;17.33;;;6.97;;
9559;SDS011;4818;50.860;4.648;2022-10-31T11:59:52;10.75;;;6.93;;
9559;SDS011;4818;50.860;4.648;2022-10-31T12:02:19;16.50;;;8.23;;
9559;SDS011;4818;50.860;4.648;2022-10-31T12:04:50;19.73;;;7.15;;
9559;SDS011;4818;50.860;4.648;2022-10-31T12:07:18;13.07;;;6.43;;
9559;SDS011;4818;50.860;4.648;2022-10-31T12:09:44;15.98;;;7.18;;
9559;SDS011;4818;50.860;4.648;2022-10-31T12:22:57;15.45;;;6.80;;
9559;SDS011;4818;50.860;4.648;2022-10-31T12:25:47;13.60;;;6.85;;
9559;SDS011;4818;50.860;4.648;2022-10-31T12:30:59;13.30;;;7.03;;
9559;SDS011;4818;50.860;4.648;2022-10-31T12:49:14;13.40;;;5.15;;
9559;SDS011;4818;50.860;4.648;2022-10-31T12:51:49;18.15;;;4.78;;
9559;SDS011;4818;50.860;4.648;2022-10-31T13:00:12;11.18;;;3.40;;
9559;SDS011;4818;50.860;4.648;2022-10-31T13:05:18;11.82;;;3.45;;
9559;SDS011;4818;50.860;4.648;2022-10-31T13:07:54;10.23;;;3.17;;
9559;SDS011;4818;50.860;4.648;2022-10-31T13:10:24;9.50;;;3.05;;
9559;SDS011;4818;50.860;4.648;2022-10-31T13:12:53;12.30;;;2.78;;
9559;SDS011;4818;50.860;4.648;2022-10-31T13:18:10;12.23;;;3.40;;
9559;SDS011;4818;50.860;4.648;2022-10-31T13:20:43;10.82;;;2.75;;
9559;SDS011;4818;50.860;4.648;2022-10-31T13:23:16;7.80;;;3.08;;
9559;SDS011;4818;50.860;4.648;2022-10-31T13:25:46;6.45;;;2.83;;
9559;SDS011;4818;50.860;4.648;2022-10-31T13:28:31;9.68;;;2.35;;
9559;SDS011;4818;50.860;4.648;2022-10-31T13:30:59;10.13;;;3.05;;
9559;SDS011;4818;50.860;4.648;2022-10-31T13:33:43;11.00;;;2.92;;
9559;SDS011;4818;50.860;4.648;2022-10-31T13:36:57;16.30;;;3.33;;
9559;SDS011;4818;50.860;4.648;2022-10-31T13:41:50;11.13;;;3.50;;
9559;SDS011;4818;50.860;4.648;2022-10-31T13:46:44;11.35;;;3.58;;
9559;SDS011;4818;50.860;4.648;2022-10-31T13:51:46;9.35;;;3.80;;
9559;SDS011;4818;50.860;4.648;2022-10-31T13:54:23;11.20;;;4.30;;
9559;SDS011;4818;50.860;4.648;2022-10-31T13:56:56;11.98;;;4.63;;
9559;SDS011;4818;50.860;4.648;2022-10-31T13:59:27;7.85;;;3.63;;
9559;SDS011;4818;50.860;4.648;2022-10-31T14:02:00;13.88;;;4.43;;
9559;SDS011;4818;50.860;4.648;2022-10-31T14:04:38;14.90;;;5.20;;
9559;SDS011;4818;50.860;4.648;2022-10-31T14:07:05;15.85;;;5.85;;
9559;SDS011;4818;50.860;4.648;2022-10-31T14:12:22;14.60;;;5.30;;
9559;SDS011;4818;50.860;4.648;2022-10-31T14:14:52;13.45;;;5.18;;
9559;SDS011;4818;50.860;4.648;2022-10-31T14:17:22;19.63;;;5.75;;
9559;SDS011;4818;50.860;4.648;2022-10-31T14:22:37;12.13;;;4.65;;
9559;SDS011;4818;50.860;4.648;2022-10-31T14:31:27;14.85;;;5.20;;
9559;SDS011;4818;50.860;4.648;2022-10-31T14:34:01;11.82;;;5.68;;
9559;SDS011;4818;50.860;4.648;2022-10-31T14:36:38;14.30;;;5.68;;
9559;SDS011;4818;50.860;4.648;2022-10-31T14:41:45;12.07;;;5.60;;
9559;SDS011;4818;50.860;4.648;2022-10-31T14:44:17;14.07;;;5.88;;
9559;SDS011;4818;50.860;4.648;2022-10-31T14:46:54;14.18;;;5.80;;
9559;SDS011;4818;50.860;4.648;2022-10-31T14:51:54;17.67;;;7.22;;
9559;SDS011;4818;50.860;4.648;2022-10-31T14:54:24;19.05;;;7.70;;
9559;SDS011;4818;50.860;4.648;2022-10-31T14:57:05;14.70;;;6.60;;
9559;SDS011;4818;50.860;4.648;2022-10-31T14:59:33;13.93;;;6.60;;
9559;SDS011;4818;50.860;4.648;2022-10-31T15:02:07;15.18;;;6.35;;
9559;SDS011;4818;50.860;4.648;2022-10-31T15:04:35;19.20;;;7.20;;
9559;SDS011;4818;50.860;4.648;2022-10-31T15:07:04;20.30;;;7.35;;
9559;SDS011;4818;50.860;4.648;2022-10-31T15:09:33;17.02;;;7.00;;
9559;SDS011;4818;50.860;4.648;2022-10-31T15:12:00;13.80;;;6.72;;
9559;SDS011;4818;50.860;4.648;2022-10-31T15:16:52;17.90;;;7.05;;
9559;SDS011;4818;50.860;4.648;2022-10-31T15:19:26;19.83;;;7.03;;
9559;SDS011;4818;50.860;4.648;2022-10-31T15:21:54;13.05;;;7.38;;
9559;SDS011;4818;50.860;4.648;2022-10-31T15:24:20;16.77;;;8.00;;
9559;SDS011;4818;50.860;4.648;2022-10-31T15:26:51;19.17;;;7.82;;
9559;SDS011;4818;50.860;4.648;2022-10-31T15:32:01;26.10;;;9.47;;
9559;SDS011;4818;50.860;4.648;2022-10-31T15:34:41;13.65;;;7.50;;
9559;SDS011;4818;50.860;4.648;2022-10-31T15:37:13;19.15;;;7.90;;
9559;SDS011;4818;50.860;4.648;2022-10-31T15:39:40;15.63;;;7.90;;
9559;SDS011;4818;50.860;4.648;2022-10-31T15:42:40;14.55;;;7.40;;
9559;SDS011;4818;50.860;4.648;2022-10-31T15:45:04;17.27;;;8.20;;
9559;SDS011;4818;50.860;4.648;2022-10-31T15:47:32;17.95;;;7.10;;
9559;SDS011;4818;50.860;4.648;2022-10-31T15:50:01;21.85;;;7.78;;
9559;SDS011;4818;50.860;4.648;2022-10-31T15:52:29;13.07;;;7.18;;
9559;SDS011;4818;50.860;4.648;2022-10-31T15:55:01;17.15;;;7.30;;
9559;SDS011;4818;50.860;4.648;2022-10-31T15:57:28;17.15;;;7.82;;
9559;SDS011;4818;50.860;4.648;2022-10-31T15:59:56;15.13;;;7.22;;
9559;SDS011;4818;50.860;4.648;2022-10-31T16:02:23;19.33;;;6.40;;
9559;SDS011;4818;50.860;4.648;2022-10-31T16:04:57;17.05;;;7.93;;
9559;SDS011;4818;50.860;4.648;2022-10-31T16:07:24;17.85;;;8.55;;
9559;SDS011;4818;50.860;4.648;2022-10-31T16:09:51;18.67;;;8.82;;
9559;SDS011;4818;50.860;4.648;2022-10-31T16:12:18;23.33;;;8.05;;
9559;SDS011;4818;50.860;4.648;2022-10-31T16:14:44;17.33;;;7.60;;
9559;SDS011;4818;50.860;4.648;2022-10-31T16:17:16;16.33;;;7.63;;
9559;SDS011;4818;50.860;4.648;2022-10-31T16:20:04;15.52;;;7.50;;
9559;SDS011;4818;50.860;4.648;2022-10-31T16:22:36;18.05;;;8.32;;
9559;SDS011;4818;50.860;4.648;2022-10-31T16:27:31;12.98;;;7.15;;
9559;SDS011;4818;50.860;4.648;2022-10-31T16:29:59;21.50;;;7.72;;
9559;SDS011;4818;50.860;4.648;2022-10-31T16:32:36;14.05;;;7.32;;
9559;SDS011;4818;50.860;4.648;2022-10-31T16:37:38;14.10;;;6.38;;
9559;SDS011;4818;50.860;4.648;2022-10-31T16:40:04;14.07;;;6.13;;
9559;SDS011;4818;50.860;4.648;2022-10-31T16:42:31;12.73;;;6.18;;
9559;SDS011;4818;50.860;4.648;2022-10-31T16:44:58;9.43;;;4.65;;
9559;SDS011;4818;50.860;4.648;2022-10-31T16:47:24;10.15;;;5.03;;
9559;SDS011;4818;50.860;4.648;2022-10-31T16:49:51;11.73;;;5.47;;
9559;SDS011;4818;50.860;4.648;2022-10-31T16:52:17;10.68;;;4.43;;
9559;SDS011;4818;50.860;4.648;2022-10-31T16:54:43;7.95;;;4.50;;
9559;SDS011;4818;50.860;4.648;2022-10-31T16:57:15;9.23;;;4.15;;
9559;SDS011;4818;50.860;4.648;2022-10-31T16:59:51;8.80;;;3.67;;
9559;SDS011;4818;50.860;4.648;2022-10-31T17:02:20;9.55;;;4.30;;
9559;SDS011;4818;50.860;4.648;2022-10-31T17:04:47;11.18;;;4.97;;
9559;SDS011;4818;50.860;4.648;2022-10-31T17:07:13;11.23;;;4.47;;
9559;SDS011;4818;50.860;4.648;2022-10-31T17:09:42;14.88;;;3.97;;
9559;SDS011;4818;50.860;4.648;2022-10-31T17:12:14;10.80;;;4.55;;
9559;SDS011;4818;50.860;4.648;2022-10-31T17:14:42;8.48;;;3.70;;
9559;SDS011;4818;50.860;4.648;2022-10-31T17:17:10;15.13;;;4.45;;
9559;SDS011;4818;50.860;4.648;2022-10-31T17:19:36;7.47;;;3.35;;
9559;SDS011;4818;50.860;4.648;2022-10-31T17:22:02;10.18;;;4.15;;
9559;SDS011;4818;50.860;4.648;2022-10-31T17:24:28;6.35;;;4.07;;
9559;SDS011;4818;50.860;4.648;2022-10-31T17:26:55;11.10;;;3.90;;
9559;SDS011;4818;50.860;4.648;2022-10-31T17:29:21;8.02;;;3.38;;
9559;SDS011;4818;50.860;4.648;2022-10-31T17:31:47;5.68;;;2.80;;
9559;SDS011;4818;50.860;4.648;2022-10-31T17:34:13;10.50;;;4.20;;
9559;SDS011;4818;50.860;4.648;2022-10-31T17:36:39;10.10;;;3.25;;
9559;SDS011;4818;50.860;4.648;2022-10-31T17:39:05;8.25;;;2.83;;
9559;SDS011;4818;50.860;4.648;2022-10-31T17:41:33;5.35;;;2.53;;
9559;SDS011;4818;50.860;4.648;2022-10-31T17:44:00;8.80;;;3.22;;
9559;SDS011;4818;50.860;4.648;2022-10-31T17:46:26;8.85;;;3.53;;
9559;SDS011;4818;50.860;4.648;2022-10-31T17:48:52;7.97;;;2.60;;
9559;SDS011;4818;50.860;4.648;2022-10-31T17:51:19;9.40;;;3.20;;